1881 NOT_NAMED (1881011S15057)


IBTrACS version v04r00. Visit IBTrACS website for data access.
Please direct all questions to the IBTrACS Q and A forum

Storm track - Intensity - Wind Radii - Intensity Data - Source Data - All data

Summary Information

Storm ID 1881011S15057
Start Jan 11 00Z
End Jan 17 00Z
ATCF IDs
Track status Best track data.

Storm track plot

Map of storm track

Intensity plots

No Intensity information for this storm


Radial wind information

No radial wind information for this storm


Position and Intensity Table

BASIN ISO_TIME_________ NATURE LAT LON
degrees north degrees east
SI 1881-01-11 00:00:00 TS -14.60 57.10
SI 03:00:00 TS -14.76 57.05
SI 06:00:00 TS -14.90 57.00
SI 09:00:00 TS -15.00 56.95
SI 12:00:00 TS -15.10 56.90
SI 15:00:00 TS -15.25 56.86
SI 18:00:00 TS -15.40 56.80
SI 21:00:00 TS -15.50 56.71
SI 1881-01-12 00:00:00 TS -15.60 56.60
SI 03:00:00 TS -15.74 56.49
SI 06:00:00 TS -15.90 56.40
SI 09:00:00 TS -16.10 56.34
SI 12:00:00 TS -16.30 56.30
SI 15:00:00 TS -16.46 56.30
SI 18:00:00 TS -16.60 56.30
SI 21:00:00 TS -16.75 56.26
SI 1881-01-13 00:00:00 TS -16.90 56.20
SI 03:00:00 TS -17.05 56.15
SI 06:00:00 TS -17.20 56.10
SI 09:00:00 TS -17.35 56.05
SI 12:00:00 TS -17.50 56.00
SI 15:00:00 TS -17.64 55.95
SI 18:00:00 TS -17.80 55.90
SI 21:00:00 TS -17.98 55.86
SI 1881-01-14 00:00:00 TS -18.20 55.80
SI 03:00:00 TS -18.49 55.71
SI 06:00:00 TS -18.80 55.60
SI 09:00:00 TS -19.05 55.50
SI 12:00:00 TS -19.30 55.40
SI 15:00:00 TS -19.59 55.29
SI 18:00:00 TS -19.90 55.20
SI 21:00:00 TS -20.24 55.14
SI 1881-01-15 00:00:00 TS -20.60 55.10
SI 03:00:00 TS -20.95 55.04
SI 06:00:00 TS -21.30 55.00
SI 09:00:00 TS -21.64 54.99
SI 12:00:00 TS -22.00 55.00
SI 15:00:00 TS -22.39 55.00
SI 18:00:00 TS -22.80 55.00
SI 21:00:00 TS -23.19 54.99
SI 1881-01-16 00:00:00 TS -23.60 55.00
SI 03:00:00 TS -24.05 55.04
SI 06:00:00 TS -24.50 55.10
SI 09:00:00 TS -24.90 55.19
SI 12:00:00 TS -25.30 55.30
SI 15:00:00 TS -25.75 55.44
SI 18:00:00 TS -26.20 55.60
SI 21:00:00 TS -26.61 55.75
SI 1881-01-17 00:00:00 TS -27.00 55.90

Source Information

Agency Information
USA
TOKYO
CMA
HKO
NEWDELHI
REUNION
BOM
NADI
WELLINGTON
DS824 s_hem.dat:16:NOT NAMED
TD9636
TD9635
NEUMANN
MLC

All available IBTrACS Data

SEASON BASIN SUBBASIN ISO_TIME_________ NATURE LAT LON DIST2LAND LANDFALL IFLAG USA SSHS DS824 LAT DS824 LON DS824 STAGE STORM SPEED STORM DIR
Year degrees north degrees east km km 1 degrees north degrees east kts degrees
1881 SI MM 1881-01-11 00:00:00 TS -14.60 57.10 616 594 _________O____ -1 -14.60 57.10 TC 3 195
1881 SI MM 03:00:00 TS -14.76 57.05 594 584 _________P____ -1 -14.76 57.05 TC 3 197
1881 SI MM 06:00:00 TS -14.90 57.00 584 573 _________O____ -1 -14.90 57.00 TC 3 202
1881 SI MM 09:00:00 TS -15.00 56.95 574 563 _________P____ -1 -15.00 56.95 TC 2 207
1881 SI MM 12:00:00 TS -15.10 56.90 563 551 _________O____ -1 -15.10 56.90 TC 3 200
1881 SI MM 15:00:00 TS -15.25 56.86 551 531 _________P____ -1 -15.25 56.86 TC 3 197
1881 SI MM 18:00:00 TS -15.40 56.80 531 520 _________O____ -1 -15.40 56.80 TC 3 210
1881 SI MM 21:00:00 TS -15.50 56.71 521 512 _________P____ -1 -15.50 56.71 TC 3 224
1881 SI MM 1881-01-12 00:00:00 TS -15.60 56.60 512 501 _________O____ -1 -15.60 56.60 TC 3 221
1881 SI MM 03:00:00 TS -15.74 56.49 503 484 _________P____ -1 -15.74 56.49 TC 4 213
1881 SI MM 06:00:00 TS -15.90 56.40 484 465 _________O____ -1 -15.90 56.40 TC 4 203
1881 SI MM 09:00:00 TS -16.10 56.34 465 443 _________P____ -1 -16.10 56.34 TC 4 193
1881 SI MM 12:00:00 TS -16.30 56.30 443 432 _________O____ -1 -16.30 56.30 TC 4 187
1881 SI MM 15:00:00 TS -16.46 56.30 422 411 _________P____ -1 -16.46 56.30 TC 3 0
1881 SI MM 18:00:00 TS -16.60 56.30 411 400 _________O____ -1 -16.60 56.30 TC 3 189
1881 SI MM 21:00:00 TS -16.75 56.26 400 383 _________P____ -1 -16.75 56.26 TC 3 197
1881 SI MM 1881-01-13 00:00:00 TS -16.90 56.20 383 372 _________O____ -1 -16.90 56.20 TC 3 199
1881 SI MM 03:00:00 TS -17.05 56.15 372 356 _________P____ -1 -17.05 56.15 TC 3 197
1881 SI MM 06:00:00 TS -17.20 56.10 356 346 _________O____ -1 -17.20 56.10 TC 3 197
1881 SI MM 09:00:00 TS -17.35 56.05 346 330 _________P____ -1 -17.35 56.05 TC 3 197
1881 SI MM 12:00:00 TS -17.50 56.00 330 321 _________O____ -1 -17.50 56.00 TC 3 199
1881 SI MM 15:00:00 TS -17.64 55.95 326 307 _________P____ -1 -17.64 55.95 TC 3 197
1881 SI MM 18:00:00 TS -17.80 55.90 307 288 _________O____ -1 -17.80 55.90 TC 3 195
1881 SI MM 21:00:00 TS -17.98 55.86 288 277 _________P____ -1 -17.98 55.86 TC 4 193
1881 SI MM 1881-01-14 00:00:00 TS -18.20 55.80 277 260 _________O____ -1 -18.20 55.80 TC 5 195
1881 SI MM 03:00:00 TS -18.49 55.71 260 246 _________P____ -1 -18.49 55.71 TC 6 198
1881 SI MM 06:00:00 TS -18.80 55.60 246 223 _________O____ -1 -18.80 55.60 TC 6 200
1881 SI MM 09:00:00 TS -19.05 55.50 223 190 _________P____ -1 -19.05 55.50 TC 5 201
1881 SI MM 12:00:00 TS -19.30 55.40 190 156 _________O____ -1 -19.30 55.40 TC 6 200
1881 SI MM 15:00:00 TS -19.59 55.29 156 123 _________P____ -1 -19.59 55.29 TC 6 198
1881 SI MM 18:00:00 TS -19.90 55.20 123 90 _________O____ -1 -19.90 55.20 TC 7 192
1881 SI MM 21:00:00 TS -20.24 55.14 91 49 _________P____ -1 -20.24 55.14 TC 7 188
1881 SI MM 1881-01-15 00:00:00 TS -20.60 55.10 49 23 _________O____ -1 -20.60 55.10 TC 7 188
1881 SI MM 03:00:00 TS -20.95 55.04 30 20 _________P____ -1 -20.95 55.04 TC 7 188
1881 SI MM 06:00:00 TS -21.30 55.00 30 30 _________O____ -1 -21.30 55.00 TC 7 183
1881 SI MM 09:00:00 TS -21.64 54.99 45 45 _________P____ -1 -21.64 54.99 TC 7 0
1881 SI MM 12:00:00 TS -22.00 55.00 84 84 _________O____ -1 -22.00 55.00 TC 8 0
1881 SI MM 15:00:00 TS -22.39 55.00 126 126 _________P____ -1 -22.39 55.00 TC 8 179
1881 SI MM 18:00:00 TS -22.80 55.00 168 168 _________O____ -1 -22.80 55.00 TC 8 181
1881 SI MM 21:00:00 TS -23.19 54.99 210 210 _________P____ -1 -23.19 54.99 TC 8 179
1881 SI MM 1881-01-16 00:00:00 TS -23.60 55.00 253 253 _________O____ -1 -23.60 55.00 TC 9 177
1881 SI MM 03:00:00 TS -24.05 55.04 297 297 _________P____ -1 -24.05 55.04 TC 9 175
1881 SI MM 06:00:00 TS -24.50 55.10 350 350 _________O____ -1 -24.50 55.10 TC 9 171
1881 SI MM 09:00:00 TS -24.90 55.19 393 393 _________P____ -1 -24.90 55.19 TC 8 167
1881 SI MM 12:00:00 TS -25.30 55.30 436 436 _________O____ -1 -25.30 55.30 TC 9 165
1881 SI MM 15:00:00 TS -25.75 55.44 492 491 _________P____ -1 -25.75 55.44 TC 9 163
1881 SI MM 18:00:00 TS -26.20 55.60 536 536 _________O____ -1 -26.20 55.60 TC 9 162
1881 SI MM 21:00:00 TS -26.61 55.75 581 581 _________P____ -1 -26.61 55.75 TC 8 161
1881 SI MM 1881-01-17 00:00:00 TS -27.00 55.90 626 _________O____ -1 -27.00 55.90 TC 8 161